Time;durP1;ratioP1;P1;durP2;ratioP2;P2;SDS_P1;SDS_P2;PMS_P1;PMS_P2;Temp;Humidity;BMP_temperature;BMP_pressure;BME280_temperature;BME280_humidity;BME280_pressure;Samples;Min_cycle;Max_cycle;Signal;HPM_P1;HPM_P2
2022/01/27 00:05:47;;;;;;;25.65;13.85;;;;;;;;;;5006044;28;20038;-60
2022/01/27 00:08:18;;;;;;;29.17;14.37;;;;;;;;;;5009239;28;20037;-61
2022/01/27 00:10:51;;;;;;;31.70;15.88;;;;;;;;;;5006558;28;20054;-62
2022/01/27 00:13:18;;;;;;;30.63;16.75;;;;;;;;;;4991979;28;20455;-61
2022/01/27 00:15:47;;;;;;;31.38;17.45;;;;;;;;;;5008178;28;20052;-61
2022/01/27 00:18:17;;;;;;;33.03;15.90;;;;;;;;;;5008102;28;20152;-61
2022/01/27 00:20:44;;;;;;;28.48;15.82;;;;;;;;;;5008367;28;20041;-61
2022/01/27 00:23:10;;;;;;;29.58;16.30;;;;;;;;;;5039587;28;20081;-61
2022/01/27 00:25:36;;;;;;;27.30;14.95;;;;;;;;;;5022827;28;20100;-61
2022/01/27 00:28:02;;;;;;;29.08;16.23;;;;;;;;;;5006757;28;20081;-61
2022/01/27 00:30:28;;;;;;;30.33;15.90;;;;;;;;;;5023384;28;20053;-62
2022/01/27 00:32:54;;;;;;;27.15;15.55;;;;;;;;;;5039457;28;20046;-61
2022/01/27 00:35:20;;;;;;;26.17;13.85;;;;;;;;;;5008116;28;20176;-61
2022/01/27 00:37:46;;;;;;;31.05;18.55;;;;;;;;;;5040209;28;20046;-61
2022/01/27 00:40:12;;;;;;;29.17;17.23;;;;;;;;;;5008268;28;20520;-61
2022/01/27 00:42:39;;;;;;;30.20;17.88;;;;;;;;;;5008162;28;20099;-61
2022/01/27 00:45:06;;;;;;;37.00;19.05;;;;;;;;;;5007072;28;20061;-61
2022/01/27 00:47:32;;;;;;;29.90;13.90;;;;;;;;;;5006324;28;20030;-62
2022/01/27 00:49:58;;;;;;;33.63;18.88;;;;;;;;;;5006430;28;20048;-61
2022/01/27 00:52:33;;;;;;;30.30;14.60;;;;;;;;;;5022610;28;20053;-61
2022/01/27 00:54:59;;;;;;;29.90;17.52;;;;;;;;;;5007876;28;20040;-61
2022/01/27 00:59:58;;;;;;;33.42;18.65;;;;;;;;;;5007436;28;20074;-61
2022/01/27 01:03:11;;;;;;;32.58;18.30;;;;;;;;;;5023020;28;20115;-61
2022/01/27 01:07:46;;;;;;;38.72;19.67;;;;;;;;;;4994308;28;20545;-61
2022/01/27 01:15:31;;;;;;;39.08;19.73;;;;;;;;;;5009002;28;20049;-63
2022/01/27 01:32:07;;;;;;;29.92;17.33;;;;;;;;;;5041285;28;20038;-62
2022/01/27 01:34:33;;;;;;;28.77;14.65;;;;;;;;;;5029304;28;20443;-63
2022/01/27 01:37:05;;;;;;;27.00;16.52;;;;;;;;;;5041493;28;20056;-63
2022/01/27 01:39:33;;;;;;;31.17;17.52;;;;;;;;;;4991781;28;20101;-63
2022/01/27 01:42:00;;;;;;;40.40;19.02;;;;;;;;;;5008363;28;20046;-64
2022/01/27 01:44:26;;;;;;;31.73;18.40;;;;;;;;;;5041761;28;20069;-63
2022/01/27 01:46:53;;;;;;;37.95;19.50;;;;;;;;;;5008789;28;20034;-63
2022/01/27 01:49:22;;;;;;;28.75;15.90;;;;;;;;;;5008647;28;20046;-63
2022/01/27 01:51:48;;;;;;;35.67;18.98;;;;;;;;;;4992411;28;20052;-62
2022/01/27 01:54:15;;;;;;;34.78;18.67;;;;;;;;;;5041697;28;20485;-63
2022/01/27 01:56:42;;;;;;;31.20;15.35;;;;;;;;;;5041150;28;20042;-64
2022/01/27 01:59:08;;;;;;;35.55;20.25;;;;;;;;;;5008971;28;20806;-61
2022/01/27 02:01:35;;;;;;;30.67;17.92;;;;;;;;;;5009673;28;20037;-61
2022/01/27 02:04:06;;;;;;;35.85;17.67;;;;;;;;;;5009511;28;20037;-64
2022/01/27 02:06:37;;;;;;;35.65;18.80;;;;;;;;;;5040644;28;20042;-63
2022/01/27 02:09:13;;;;;;;34.63;18.80;;;;;;;;;;5009351;28;20404;-62
2022/01/27 02:19:56;;;;;;;35.65;20.15;;;;;;;;;;5008696;28;20561;-60
2022/01/27 02:22:23;;;;;;;31.63;18.33;;;;;;;;;;5024529;28;20033;-61
2022/01/27 02:24:53;;;;;;;37.13;22.85;;;;;;;;;;5042065;28;20056;-61
2022/01/27 02:27:20;;;;;;;31.52;18.83;;;;;;;;;;5009197;28;20057;-62
2022/01/27 02:29:46;;;;;;;39.88;19.27;;;;;;;;;;5010312;28;20113;-61
2022/01/27 02:32:13;;;;;;;30.33;17.35;;;;;;;;;;5024597;28;20046;-61
2022/01/27 02:34:40;;;;;;;35.03;20.30;;;;;;;;;;5041744;28;20058;-61
2022/01/27 02:37:07;;;;;;;26.52;14.63;;;;;;;;;;5009658;28;20499;-61
2022/01/27 02:39:33;;;;;;;38.15;21.33;;;;;;;;;;5009033;28;20049;-61
2022/01/27 02:42:16;;;;;;;32.72;20.25;;;;;;;;;;5009103;28;20034;-61
2022/01/27 02:44:52;;;;;;;33.20;22.13;;;;;;;;;;5008222;28;20068;-61
2022/01/27 02:47:19;;;;;;;33.15;19.27;;;;;;;;;;5024960;28;20073;-60
2022/01/27 02:49:45;;;;;;;31.17;18.60;;;;;;;;;;5040809;28;20144;-62
2022/01/27 02:52:11;;;;;;;38.22;22.80;;;;;;;;;;5010175;28;20562;-61
2022/01/27 02:54:37;;;;;;;40.00;23.98;;;;;;;;;;5005825;28;20052;-61
2022/01/27 02:57:04;;;;;;;37.40;23.45;;;;;;;;;;5009220;28;20049;-61
2022/01/27 02:59:30;;;;;;;30.83;16.42;;;;;;;;;;5009952;28;20048;-60
2022/01/27 03:01:56;;;;;;;34.55;20.48;;;;;;;;;;5008197;28;20050;-60
2022/01/27 03:04:24;;;;;;;42.03;25.08;;;;;;;;;;5024712;28;20092;-61
2022/01/27 03:06:50;;;;;;;32.58;17.95;;;;;;;;;;5021656;28;20399;-61
2022/01/27 03:09:16;;;;;;;37.47;21.35;;;;;;;;;;5040755;28;20096;-61
2022/01/27 03:11:52;;;;;;;40.03;23.50;;;;;;;;;;5041050;28;20041;-60
2022/01/27 03:14:20;;;;;;;39.15;22.20;;;;;;;;;;5008797;28;20088;-61
2022/01/27 03:16:46;;;;;;;39.03;21.30;;;;;;;;;;5009216;28;20050;-61
2022/01/27 03:19:13;;;;;;;40.20;23.90;;;;;;;;;;4991505;28;20042;-60
2022/01/27 03:21:39;;;;;;;36.75;21.42;;;;;;;;;;5007779;28;20046;-61
2022/01/27 03:24:05;;;;;;;39.00;22.67;;;;;;;;;;5040015;28;20489;-61
2022/01/27 03:26:31;;;;;;;43.25;26.02;;;;;;;;;;5008555;28;20050;-61
2022/01/27 03:28:58;;;;;;;43.08;25.77;;;;;;;;;;5008790;28;20527;-61
2022/01/27 03:31:24;;;;;;;44.63;26.77;;;;;;;;;;5007731;28;20042;-60
2022/01/27 03:33:51;;;;;;;40.97;23.90;;;;;;;;;;5007489;28;20041;-61
2022/01/27 03:36:17;;;;;;;41.30;25.17;;;;;;;;;;5024267;28;20042;-61
2022/01/27 03:38:43;;;;;;;39.35;18.75;;;;;;;;;;5040808;28;20507;-61
2022/01/27 03:41:10;;;;;;;42.72;25.40;;;;;;;;;;5007161;28;20045;-61
2022/01/27 03:43:37;;;;;;;43.35;23.02;;;;;;;;;;5008637;28;20030;-61
2022/01/27 03:46:04;;;;;;;43.15;25.42;;;;;;;;;;5004980;28;20125;-61
2022/01/27 03:48:30;;;;;;;36.63;22.23;;;;;;;;;;5040382;28;20030;-61
2022/01/27 03:50:56;;;;;;;41.85;22.60;;;;;;;;;;5040548;28;20038;-61
2022/01/27 03:53:22;;;;;;;44.58;26.45;;;;;;;;;;4991170;28;20033;-60
2022/01/27 03:55:49;;;;;;;40.83;25.20;;;;;;;;;;5006887;28;20061;-62
2022/01/27 03:58:15;;;;;;;37.85;21.17;;;;;;;;;;5006831;28;20062;-61
2022/01/27 04:00:41;;;;;;;42.60;24.17;;;;;;;;;;5007323;28;20037;-60
2022/01/27 04:03:09;;;;;;;34.67;21.83;;;;;;;;;;5007928;28;20512;-60
2022/01/27 04:05:43;;;;;;;40.47;22.58;;;;;;;;;;5008905;28;20049;-60
2022/01/27 04:08:10;;;;;;;36.53;21.67;;;;;;;;;;5008195;28;20099;-60
2022/01/27 04:10:37;;;;;;;42.80;24.27;;;;;;;;;;5040766;28;20543;-60
2022/01/27 04:13:04;;;;;;;32.58;18.65;;;;;;;;;;5009107;28;20052;-60
2022/01/27 04:15:30;;;;;;;35.95;20.08;;;;;;;;;;5007626;28;20151;-60
2022/01/27 04:17:56;;;;;;;40.47;21.67;;;;;;;;;;5008588;28;20463;-60
2022/01/27 04:20:22;;;;;;;38.13;19.88;;;;;;;;;;5007504;28;20538;-60
2022/01/27 04:22:48;;;;;;;40.50;22.05;;;;;;;;;;5009040;28;20480;-61
2022/01/27 04:25:15;;;;;;;39.72;22.30;;;;;;;;;;5008872;28;20407;-60
2022/01/27 04:27:45;;;;;;;40.35;22.33;;;;;;;;;;5040494;28;20071;-62
2022/01/27 04:30:17;;;;;;;38.33;22.98;;;;;;;;;;5007638;28;20768;-61
2022/01/27 04:32:49;;;;;;;36.17;22.52;;;;;;;;;;5038580;28;20527;-62
2022/01/27 04:35:19;;;;;;;44.05;21.90;;;;;;;;;;5007983;28;20365;-60
2022/01/27 04:40:27;;;;;;;50.53;24.42;;;;;;;;;;5040717;28;20046;-60
2022/01/27 04:43:15;;;;;;;39.53;23.00;;;;;;;;;;5007300;28;20042;-61
2022/01/27 04:45:58;;;;;;;47.45;24.65;;;;;;;;;;5006928;28;20396;-61
2022/01/27 04:48:25;;;;;;;39.40;21.02;;;;;;;;;;5040331;28;20045;-61
2022/01/27 04:50:53;;;;;;;38.45;20.02;;;;;;;;;;5008607;28;20034;-62
2022/01/27 04:53:27;;;;;;;52.28;27.15;;;;;;;;;;5008843;28;20050;-61
2022/01/27 04:55:55;;;;;;;40.60;19.73;;;;;;;;;;5006507;28;20046;-61
2022/01/27 04:58:29;;;;;;;46.88;22.15;;;;;;;;;;5007390;28;20121;-61
2022/01/27 05:00:58;;;;;;;60.50;28.00;;;;;;;;;;5008785;28;20042;-62
2022/01/27 05:03:36;;;;;;;57.47;29.48;;;;;;;;;;5006368;28;20050;-62
2022/01/27 05:06:02;;;;;;;62.80;32.00;;;;;;;;;;5006824;28;20566;-62
2022/01/27 05:08:28;;;;;;;71.13;32.15;;;;;;;;;;5039911;28;20034;-62
2022/01/27 05:10:59;;;;;;;61.22;28.90;;;;;;;;;;5008345;28;20030;-62
2022/01/27 05:13:28;;;;;;;78.85;36.25;;;;;;;;;;5006527;28;20046;-63
2022/01/27 05:15:54;;;;;;;66.72;29.98;;;;;;;;;;5008128;28;20488;-62
2022/01/27 05:18:21;;;;;;;57.20;29.98;;;;;;;;;;5007604;28;20038;-62
2022/01/27 05:20:47;;;;;;;64.72;28.73;;;;;;;;;;5039284;28;20053;-62
2022/01/27 05:23:14;;;;;;;63.38;30.38;;;;;;;;;;5008302;28;20034;-61
2022/01/27 05:25:40;;;;;;;87.90;34.42;;;;;;;;;;5007806;28;20053;-61
2022/01/27 05:28:07;;;;;;;66.75;31.83;;;;;;;;;;5008305;28;20049;-61
2022/01/27 05:30:34;;;;;;;65.07;30.13;;;;;;;;;;5007457;28;20511;-62
2022/01/27 05:33:00;;;;;;;68.97;31.17;;;;;;;;;;5039845;28;20148;-62
2022/01/27 05:35:26;;;;;;;66.95;30.05;;;;;;;;;;5005816;28;20076;-61
2022/01/27 05:37:52;;;;;;;64.60;29.13;;;;;;;;;;4990361;28;20041;-61
2022/01/27 05:40:18;;;;;;;78.53;34.92;;;;;;;;;;5007891;28;20049;-62
2022/01/27 05:42:44;;;;;;;67.68;29.83;;;;;;;;;;5006576;28;20045;-63
2022/01/27 05:45:10;;;;;;;66.63;28.52;;;;;;;;;;5039250;28;20042;-62
2022/01/27 05:47:37;;;;;;;77.72;32.53;;;;;;;;;;5007731;28;20041;-62
2022/01/27 05:50:03;;;;;;;78.05;34.70;;;;;;;;;;5006939;28;20150;-62
2022/01/27 05:52:30;;;;;;;82.45;34.10;;;;;;;;;;5009939;28;20042;-61
2022/01/27 05:54:56;;;;;;;75.22;32.83;;;;;;;;;;5011621;28;20042;-62
2022/01/27 05:57:22;;;;;;;70.35;30.35;;;;;;;;;;5010176;28;20393;-62
2022/01/27 05:59:49;;;;;;;59.90;27.55;;;;;;;;;;5025618;28;20030;-61
2022/01/27 06:02:15;;;;;;;91.30;34.33;;;;;;;;;;5009566;28;20125;-61
2022/01/27 06:04:41;;;;;;;62.97;26.65;;;;;;;;;;5043161;28;20064;-62
2022/01/27 06:07:07;;;;;;;75.38;29.95;;;;;;;;;;5009253;28;20121;-62
2022/01/27 06:09:33;;;;;;;74.40;31.40;;;;;;;;;;5011321;28;20120;-63
2022/01/27 06:11:59;;;;;;;77.60;31.58;;;;;;;;;;5011031;28;20049;-62
2022/01/27 06:14:25;;;;;;;79.07;33.55;;;;;;;;;;4993451;28;20046;-61
2022/01/27 06:16:51;;;;;;;64.38;29.77;;;;;;;;;;5042836;28;20048;-61
2022/01/27 06:19:17;;;;;;;58.90;27.98;;;;;;;;;;5010649;28;20049;-61
2022/01/27 06:21:44;;;;;;;58.13;27.27;;;;;;;;;;5010318;28;20101;-62
2022/01/27 06:24:10;;;;;;;60.67;27.00;;;;;;;;;;5041387;28;20153;-61
2022/01/27 06:26:36;;;;;;;53.50;24.77;;;;;;;;;;5010420;28;20076;-61
2022/01/27 06:29:03;;;;;;;44.50;21.85;;;;;;;;;;5009270;28;20100;-62
2022/01/27 06:31:29;;;;;;;40.75;20.02;;;;;;;;;;5026740;28;20081;-61
2022/01/27 06:33:55;;;;;;;34.60;17.30;;;;;;;;;;4993073;28;20042;-63
2022/01/27 06:36:21;;;;;;;50.90;23.10;;;;;;;;;;5008705;28;20052;-62
2022/01/27 06:38:48;;;;;;;49.25;23.58;;;;;;;;;;5010318;28;20045;-63
2022/01/27 06:41:14;;;;;;;50.53;23.10;;;;;;;;;;5011731;28;20041;-62
2022/01/27 06:43:40;;;;;;;51.15;24.02;;;;;;;;;;5010497;28;20038;-62
2022/01/27 06:46:06;;;;;;;50.08;24.40;;;;;;;;;;5009497;28;20106;-63
2022/01/27 06:48:32;;;;;;;49.28;22.55;;;;;;;;;;5007358;28;20121;-63
2022/01/27 06:51:01;;;;;;;53.03;23.98;;;;;;;;;;5025286;28;20049;-63
2022/01/27 06:53:27;;;;;;;42.38;21.55;;;;;;;;;;5042069;28;20565;-63
2022/01/27 06:55:54;;;;;;;51.55;24.17;;;;;;;;;;5008848;28;20049;-64
2022/01/27 06:58:20;;;;;;;55.58;26.23;;;;;;;;;;5038388;28;20061;-65
2022/01/27 07:00:47;;;;;;;40.60;19.38;;;;;;;;;;5041203;28;20567;-63
2022/01/27 07:03:14;;;;;;;51.75;24.42;;;;;;;;;;5009011;28;20088;-66
2022/01/27 07:05:41;;;;;;;59.95;26.95;;;;;;;;;;5024681;28;20064;-63
2022/01/27 07:08:07;;;;;;;50.22;23.80;;;;;;;;;;4991652;28;20456;-62
2022/01/27 07:10:33;;;;;;;60.47;27.63;;;;;;;;;;5007698;28;20037;-63
2022/01/27 07:12:59;;;;;;;53.75;23.38;;;;;;;;;;5007668;28;20377;-63
2022/01/27 07:15:28;;;;;;;55.95;24.50;;;;;;;;;;4990210;28;20185;-64
2022/01/27 07:17:54;;;;;;;54.42;20.30;;;;;;;;;;4991681;28;20527;-62
2022/01/27 07:20:20;;;;;;;53.72;24.67;;;;;;;;;;5009210;28;20046;-62
2022/01/27 07:22:46;;;;;;;53.05;24.75;;;;;;;;;;5007980;28;20117;-62
2022/01/27 07:25:13;;;;;;;42.53;18.27;;;;;;;;;;5040373;28;20555;-62
2022/01/27 07:27:39;;;;;;;43.97;20.30;;;;;;;;;;5040436;28;20125;-61
2022/01/27 07:30:05;;;;;;;38.00;17.33;;;;;;;;;;5023840;28;20507;-62
2022/01/27 07:32:31;;;;;;;27.95;12.88;;;;;;;;;;5024093;28;20404;-62
2022/01/27 07:34:57;;;;;;;49.40;21.77;;;;;;;;;;5024592;28;20068;-62
2022/01/27 07:37:24;;;;;;;37.92;17.30;;;;;;;;;;5041297;28;20484;-63
2022/01/27 07:39:50;;;;;;;47.58;21.77;;;;;;;;;;5008421;28;20038;-62
2022/01/27 07:42:16;;;;;;;52.95;20.85;;;;;;;;;;5007968;28;20042;-62
2022/01/27 07:44:42;;;;;;;38.35;17.70;;;;;;;;;;5008173;28;20038;-61
2022/01/27 07:47:08;;;;;;;54.60;22.33;;;;;;;;;;5007450;28;20052;-62
2022/01/27 07:49:34;;;;;;;50.38;22.58;;;;;;;;;;5009654;28;20048;-62
2022/01/27 07:52:00;;;;;;;47.50;20.38;;;;;;;;;;5010279;28;20046;-61
2022/01/27 07:54:26;;;;;;;46.22;19.23;;;;;;;;;;5008309;28;20081;-62
2022/01/27 07:56:52;;;;;;;47.42;20.63;;;;;;;;;;5007317;28;20052;-62
2022/01/27 07:59:18;;;;;;;38.72;17.10;;;;;;;;;;5008255;28;20046;-62
2022/01/27 08:01:45;;;;;;;46.58;19.33;;;;;;;;;;5040709;28;20068;-62
2022/01/27 08:04:11;;;;;;;47.58;21.02;;;;;;;;;;5039672;28;20041;-62
2022/01/27 08:06:38;;;;;;;38.72;17.27;;;;;;;;;;5007125;28;20065;-62
2022/01/27 08:09:04;;;;;;;48.53;19.98;;;;;;;;;;5040254;28;20042;-63
2022/01/27 08:11:30;;;;;;;41.63;16.85;;;;;;;;;;5006845;28;20507;-61
2022/01/27 08:13:56;;;;;;;37.90;16.70;;;;;;;;;;5007292;28;20045;-62
2022/01/27 08:16:23;;;;;;;36.53;13.90;;;;;;;;;;5039674;28;20048;-62
2022/01/27 08:18:49;;;;;;;47.78;17.70;;;;;;;;;;5039954;28;20038;-63
2022/01/27 08:21:15;;;;;;;42.05;14.55;;;;;;;;;;5007869;28;20132;-62
2022/01/27 08:23:43;;;;;;;28.33;11.43;;;;;;;;;;5007768;28;20401;-63
2022/01/27 08:26:12;;;;;;;30.15;9.43;;;;;;;;;;5007318;28;20136;-63
2022/01/27 08:31:08;;;;;;;37.70;12.95;;;;;;;;;;5006185;28;20128;-62
2022/01/27 08:33:37;;;;;;;27.52;9.40;;;;;;;;;;5039941;28;20133;-62
2022/01/27 08:36:04;;;;;;;37.80;12.10;;;;;;;;;;5008223;28;20050;-62
2022/01/27 08:38:30;;;;;;;29.27;9.90;;;;;;;;;;5007789;28;20034;-62
2022/01/27 08:40:56;;;;;;;36.58;11.43;;;;;;;;;;5006538;28;20045;-62
2022/01/27 08:43:22;;;;;;;37.00;10.57;;;;;;;;;;5006456;28;20037;-62
2022/01/27 08:45:50;;;;;;;29.48;9.43;;;;;;;;;;5006964;28;20578;-62
2022/01/27 08:48:18;;;;;;;29.88;9.10;;;;;;;;;;5008119;28;20046;-63
2022/01/27 08:50:52;;;;;;;20.70;7.35;;;;;;;;;;5006708;28;20407;-63
2022/01/27 08:53:18;;;;;;;34.20;7.97;;;;;;;;;;5007046;28;21106;-62
2022/01/27 08:55:45;;;;;;;27.77;6.90;;;;;;;;;;4990917;28;20353;-63
2022/01/27 08:58:14;;;;;;;20.88;5.57;;;;;;;;;;5008637;28;20763;-62
2022/01/27 09:00:40;;;;;;;19.90;5.78;;;;;;;;;;5040377;28;20111;-62
2022/01/27 09:03:07;;;;;;;24.35;5.82;;;;;;;;;;5040366;28;20488;-62
2022/01/27 09:05:33;;;;;;;29.23;7.65;;;;;;;;;;5040220;28;21386;-63
2022/01/27 09:07:59;;;;;;;28.25;7.18;;;;;;;;;;5007202;28;20076;-62
2022/01/27 09:10:32;;;;;;;20.13;5.32;;;;;;;;;;5040197;28;20113;-63
2022/01/27 09:13:02;;;;;;;29.73;7.57;;;;;;;;;;5039597;28;20085;-62
2022/01/27 09:15:28;;;;;;;36.28;7.57;;;;;;;;;;5040452;28;20066;-62
2022/01/27 09:17:56;;;;;;;30.80;6.80;;;;;;;;;;5006939;28;20052;-63
2022/01/27 09:20:24;;;;;;;28.83;7.55;;;;;;;;;;5006204;28;20073;-63
2022/01/27 09:22:52;;;;;;;38.33;7.95;;;;;;;;;;5004211;28;20046;-62
2022/01/27 09:25:26;;;;;;;33.05;7.15;;;;;;;;;;5008075;28;20137;-63
2022/01/27 09:27:52;;;;;;;31.60;7.65;;;;;;;;;;5026631;28;20080;-62
2022/01/27 09:30:19;;;;;;;24.83;6.10;;;;;;;;;;5011442;28;20046;-63
2022/01/27 09:32:45;;;;;;;20.17;5.13;;;;;;;;;;5043083;28;20052;-62
2022/01/27 09:35:11;;;;;;;26.27;6.03;;;;;;;;;;5043522;28;20434;-63
2022/01/27 09:37:38;;;;;;;29.52;6.13;;;;;;;;;;5043238;28;20076;-63
2022/01/27 09:40:06;;;;;;;30.20;5.05;;;;;;;;;;5042675;28;20038;-62
2022/01/27 09:42:35;;;;;;;22.50;4.10;;;;;;;;;;5011303;28;20045;-63
2022/01/27 09:45:03;;;;;;;28.77;6.38;;;;;;;;;;5042219;28;20049;-61
2022/01/27 09:47:31;;;;;;;27.85;5.18;;;;;;;;;;5041282;28;20376;-62
2022/01/27 09:50:27;;;;;;;16.30;3.17;;;;;;;;;;5010610;28;20583;-63
2022/01/27 09:52:53;;;;;;;22.77;4.25;;;;;;;;;;5009660;28;20038;-63
2022/01/27 09:55:19;;;;;;;25.95;4.72;;;;;;;;;;5026086;28;20045;-62
2022/01/27 09:57:46;;;;;;;28.40;5.00;;;;;;;;;;5009789;28;20063;-63
2022/01/27 10:00:12;;;;;;;20.95;4.03;;;;;;;;;;4993596;28;20091;-63
2022/01/27 10:02:39;;;;;;;35.15;5.60;;;;;;;;;;5010847;28;20038;-63
2022/01/27 10:05:06;;;;;;;32.00;5.80;;;;;;;;;;5009726;28;20041;-63
2022/01/27 10:07:42;;;;;;;29.80;5.03;;;;;;;;;;5009188;28;20099;-64
2022/01/27 10:10:10;;;;;;;25.00;3.97;;;;;;;;;;5042236;28;20046;-64
2022/01/27 10:12:43;;;;;;;18.05;3.33;;;;;;;;;;5042759;28;20581;-62
2022/01/27 10:15:11;;;;;;;26.85;4.82;;;;;;;;;;5010649;28;20037;-63
2022/01/27 10:17:40;;;;;;;26.45;4.25;;;;;;;;;;5010290;28;20038;-62
2022/01/27 10:20:19;;;;;;;23.05;3.90;;;;;;;;;;5040941;28;20060;-63
2022/01/27 10:23:03;;;;;;;22.60;3.95;;;;;;;;;;5009919;28;20034;-63
2022/01/27 10:25:45;;;;;;;26.20;3.90;;;;;;;;;;5025539;28;20511;-63
2022/01/27 10:31:11;;;;;;;24.90;3.58;;;;;;;;;;4998563;28;20048;-63
2022/01/27 10:34:07;;;;;;;24.92;4.25;;;;;;;;;;5041940;28;20042;-62
2022/01/27 10:36:36;;;;;;;31.45;4.43;;;;;;;;;;4995981;28;20383;-63
2022/01/27 10:39:04;;;;;;;25.23;4.07;;;;;;;;;;4992436;28;20041;-62
2022/01/27 10:41:32;;;;;;;20.85;3.90;;;;;;;;;;5010100;28;20137;-62
2022/01/27 10:44:10;;;;;;;14.60;2.40;;;;;;;;;;5008760;28;20096;-63
2022/01/27 10:46:42;;;;;;;30.23;4.50;;;;;;;;;;5042102;28;20081;-62
2022/01/27 10:49:13;;;;;;;31.35;4.57;;;;;;;;;;5024925;28;20038;-63
2022/01/27 10:51:50;;;;;;;22.60;3.85;;;;;;;;;;4993018;28;20041;-63
2022/01/27 10:54:32;;;;;;;22.83;3.13;;;;;;;;;;5009334;28;20081;-62
2022/01/27 10:57:01;;;;;;;25.42;4.53;;;;;;;;;;5010694;28;20054;-63
2022/01/27 10:59:28;;;;;;;27.20;4.88;;;;;;;;;;5009999;28;20054;-62
2022/01/27 11:01:55;;;;;;;23.08;4.50;;;;;;;;;;5040983;28;20046;-63
2022/01/27 11:04:31;;;;;;;24.35;4.00;;;;;;;;;;4991201;28;20400;-63
2022/01/27 11:06:59;;;;;;;21.38;3.38;;;;;;;;;;5006940;28;20041;-62
2022/01/27 11:09:27;;;;;;;20.98;3.53;;;;;;;;;;5009380;28;20160;-63
2022/01/27 11:11:55;;;;;;;26.27;3.80;;;;;;;;;;5007773;28;20046;-62
2022/01/27 11:14:24;;;;;;;24.80;3.92;;;;;;;;;;5008318;28;20136;-62
2022/01/27 11:16:51;;;;;;;25.77;4.10;;;;;;;;;;5041011;28;20085;-62
2022/01/27 11:21:49;;;;;;;26.60;3.83;;;;;;;;;;5009221;28;20088;-63
2022/01/27 11:24:24;;;;;;;23.95;3.50;;;;;;;;;;5006611;28;20397;-62
2022/01/27 11:26:52;;;;;;;24.42;3.47;;;;;;;;;;5009465;28;20415;-63
2022/01/27 11:29:19;;;;;;;29.15;4.25;;;;;;;;;;5008393;28;20042;-63
2022/01/27 11:32:08;;;;;;;30.67;4.13;;;;;;;;;;5009212;28;20077;-62
2022/01/27 11:34:51;;;;;;;25.42;3.80;;;;;;;;;;5005709;28;20085;-62
2022/01/27 11:37:29;;;;;;;28.58;3.47;;;;;;;;;;5008962;28;20392;-63
2022/01/27 11:39:56;;;;;;;21.52;2.80;;;;;;;;;;5041597;28;20546;-63
2022/01/27 11:42:42;;;;;;;27.45;3.85;;;;;;;;;;5010658;28;20419;-62
2022/01/27 11:45:23;;;;;;;26.40;3.72;;;;;;;;;;5010285;28;20057;-62
2022/01/27 11:47:49;;;;;;;28.77;4.15;;;;;;;;;;4992104;28;20049;-62
2022/01/27 11:50:37;;;;;;;29.70;4.75;;;;;;;;;;4990879;28;20533;-61
2022/01/27 11:53:07;;;;;;;27.67;4.65;;;;;;;;;;5020259;28;20034;-60
2022/01/27 11:55:33;;;;;;;37.70;4.75;;;;;;;;;;5012481;28;20388;-60
2022/01/27 11:58:00;;;;;;;29.67;4.03;;;;;;;;;;5012286;28;20053;-61
2022/01/27 12:00:30;;;;;;;23.98;3.28;;;;;;;;;;5019483;28;20124;-61
2022/01/27 12:02:57;;;;;;;33.28;4.38;;;;;;;;;;4992550;28;20052;-61
2022/01/27 12:05:27;;;;;;;26.48;3.47;;;;;;;;;;5042212;28;20042;-60
2022/01/27 12:08:11;;;;;;;30.48;4.60;;;;;;;;;;5024959;28;20119;-60
2022/01/27 12:10:41;;;;;;;32.03;4.03;;;;;;;;;;5009924;28;20057;-60
2022/01/27 12:13:32;;;;;;;29.80;4.30;;;;;;;;;;5009664;28;20046;-60
2022/01/27 12:18:59;;;;;;;29.52;3.55;;;;;;;;;;5031981;28;20053;-61
2022/01/27 12:21:32;;;;;;;33.63;4.35;;;;;;;;;;5008103;28;20049;-61
2022/01/27 12:24:14;;;;;;;30.08;4.55;;;;;;;;;;5007030;28;20052;-61
2022/01/27 12:26:49;;;;;;;34.53;4.97;;;;;;;;;;5004534;28;20064;-61
2022/01/27 12:29:34;;;;;;;39.72;4.88;;;;;;;;;;5010310;28;20038;-61
2022/01/27 12:32:26;;;;;;;31.73;4.60;;;;;;;;;;5010255;28;20045;-61
2022/01/27 12:34:56;;;;;;;36.22;4.10;;;;;;;;;;5005586;28;20089;-61
2022/01/27 12:37:31;;;;;;;38.20;4.75;;;;;;;;;;5010157;28;20050;-61
2022/01/27 12:39:59;;;;;;;33.95;4.78;;;;;;;;;;5009980;28;20049;-61
2022/01/27 12:42:31;;;;;;;28.63;4.65;;;;;;;;;;4992626;28;20528;-61
2022/01/27 12:45:01;;;;;;;38.78;5.35;;;;;;;;;;5008882;28;20045;-61
2022/01/27 12:47:28;;;;;;;41.63;4.88;;;;;;;;;;5009275;28;20248;-61
2022/01/27 12:50:04;;;;;;;25.00;2.92;;;;;;;;;;5009953;28;20052;-60
2022/01/27 12:52:34;;;;;;;30.80;3.28;;;;;;;;;;5009915;28;20045;-63
2022/01/27 12:55:00;;;;;;;34.20;4.03;;;;;;;;;;5008141;28;20050;-62
2022/01/27 12:57:30;;;;;;;36.78;4.97;;;;;;;;;;5008090;28;20549;-62
2022/01/27 12:59:57;;;;;;;42.75;5.28;;;;;;;;;;5011113;28;20441;-62
2022/01/27 13:02:24;;;;;;;32.83;4.00;;;;;;;;;;4995558;28;20045;-62
2022/01/27 13:04:53;;;;;;;39.72;5.07;;;;;;;;;;5011966;28;20049;-63
2022/01/27 13:07:20;;;;;;;29.42;4.28;;;;;;;;;;5012226;28;20381;-63
2022/01/27 13:09:53;;;;;;;29.63;4.00;;;;;;;;;;5012501;28;20046;-62
2022/01/27 13:12:24;;;;;;;30.77;3.20;;;;;;;;;;5012038;28;20037;-62
2022/01/27 13:14:51;;;;;;;30.13;4.20;;;;;;;;;;5012147;28;20184;-62
2022/01/27 13:17:36;;;;;;;29.08;4.30;;;;;;;;;;4995345;28;20056;-62
2022/01/27 13:20:35;;;;;;;36.17;5.07;;;;;;;;;;4994854;28;20129;-62
2022/01/27 13:23:16;;;;;;;32.28;3.92;;;;;;;;;;4997486;28;20053;-62
2022/01/27 13:25:47;;;;;;;35.20;4.90;;;;;;;;;;4995107;28;20136;-62
2022/01/27 13:28:18;;;;;;;23.98;3.22;;;;;;;;;;5011692;28;20393;-62
2022/01/27 13:30:44;;;;;;;36.58;4.07;;;;;;;;;;5011622;28;20046;-62
2022/01/27 13:33:13;;;;;;;31.77;3.95;;;;;;;;;;5011631;28;20041;-62
2022/01/27 13:35:39;;;;;;;34.05;3.88;;;;;;;;;;4995219;28;20046;-63
2022/01/27 13:38:37;;;;;;;36.78;5.15;;;;;;;;;;5011232;28;20042;-62
2022/01/27 13:41:25;;;;;;;38.17;4.68;;;;;;;;;;4995132;28;20107;-62
2022/01/27 13:43:52;;;;;;;33.97;4.43;;;;;;;;;;5010877;28;20089;-63
2022/01/27 13:46:38;;;;;;;29.77;4.38;;;;;;;;;;5012589;28;20045;-63
2022/01/27 13:49:18;;;;;;;39.50;4.15;;;;;;;;;;5010802;28;20041;-63
2022/01/27 13:51:53;;;;;;;31.60;3.78;;;;;;;;;;5011076;28;20081;-62
2022/01/27 13:54:21;;;;;;;36.53;3.75;;;;;;;;;;5011270;28;20396;-62
2022/01/27 13:56:52;;;;;;;32.40;3.35;;;;;;;;;;4994802;28;20056;-63
2022/01/27 13:59:21;;;;;;;38.50;3.75;;;;;;;;;;5010713;28;20317;-63
2022/01/27 14:01:48;;;;;;;28.13;5.10;;;;;;;;;;5012379;28;20405;-63
2022/01/27 14:04:16;;;;;;;27.85;4.22;;;;;;;;;;5012011;28;20301;-63
2022/01/27 14:06:50;;;;;;;30.58;4.07;;;;;;;;;;5010742;28;20049;-61
2022/01/27 14:09:17;;;;;;;31.52;3.65;;;;;;;;;;5010402;28;20049;-63
2022/01/27 14:11:44;;;;;;;29.75;3.75;;;;;;;;;;4993092;28;20041;-62
2022/01/27 14:14:10;;;;;;;28.42;3.88;;;;;;;;;;5010625;28;20046;-62
2022/01/27 14:16:37;;;;;;;25.70;3.17;;;;;;;;;;4994364;28;20061;-62
2022/01/27 14:19:13;;;;;;;32.42;3.90;;;;;;;;;;5010462;28;20269;-63
2022/01/27 14:21:44;;;;;;;39.00;4.85;;;;;;;;;;5010865;28;20400;-62
2022/01/27 14:24:13;;;;;;;31.05;4.07;;;;;;;;;;5010113;28;20512;-63
2022/01/27 14:26:41;;;;;;;41.63;4.22;;;;;;;;;;5010493;28;20100;-62
2022/01/27 14:29:14;;;;;;;37.92;4.20;;;;;;;;;;4994543;28;20101;-62
2022/01/27 14:31:40;;;;;;;;;;;;;;;;;;4994376;28;20107;-62
2022/01/27 14:34:07;;;;;;;35.47;4.18;;;;;;;;;;4994245;28;19996;-61
2022/01/27 14:36:36;;;;;;;36.78;4.47;;;;;;;;;;5012047;28;20049;-60
2022/01/27 14:39:03;;;;;;;27.08;3.60;;;;;;;;;;4995017;28;20046;-61
2022/01/27 14:41:29;;;;;;;29.73;3.88;;;;;;;;;;5012154;28;20046;-61
2022/01/27 14:43:55;;;;;;;33.17;4.13;;;;;;;;;;5010782;28;20092;-61
2022/01/27 14:46:28;;;;;;;27.90;3.92;;;;;;;;;;5012092;28;20407;-60
2022/01/27 14:48:58;;;;;;;32.03;3.72;;;;;;;;;;5010849;28;20124;-61
2022/01/27 14:51:26;;;;;;;40.85;4.88;;;;;;;;;;5010512;28;20077;-61
2022/01/27 14:53:52;;;;;;;32.20;3.78;;;;;;;;;;5010675;28;20119;-61
2022/01/27 14:56:21;;;;;;;39.63;5.60;;;;;;;;;;5011984;28;20073;-61
2022/01/27 14:58:47;;;;;;;39.22;3.90;;;;;;;;;;5010579;28;20377;-60
2022/01/27 15:01:13;;;;;;;29.02;3.40;;;;;;;;;;5010614;28;20073;-60
2022/01/27 15:03:39;;;;;;;31.23;3.47;;;;;;;;;;5010666;28;20049;-61
2022/01/27 15:06:05;;;;;;;39.80;4.32;;;;;;;;;;5011600;28;20416;-61
2022/01/27 15:08:31;;;;;;;37.53;4.57;;;;;;;;;;5010281;28;20049;-61
2022/01/27 15:10:57;;;;;;;38.00;4.18;;;;;;;;;;4994079;28;20418;-61
2022/01/27 15:13:24;;;;;;;34.63;3.80;;;;;;;;;;5011473;28;20116;-61
2022/01/27 15:18:51;;;;;;;34.25;3.85;;;;;;;;;;5011124;28;20049;-61
2022/01/27 15:21:18;;;;;;;27.27;2.77;;;;;;;;;;5042580;28;20049;-61
2022/01/27 15:23:46;;;;;;;37.80;3.47;;;;;;;;;;5041248;28;20052;-61
2022/01/27 15:26:12;;;;;;;36.05;4.55;;;;;;;;;;5009742;28;20478;-61
2022/01/27 15:28:38;;;;;;;30.92;4.05;;;;;;;;;;5010372;28;20369;-61